sensor_id;sensor_type;location;lat;lon;timestamp;pressure;altitude;pressure_sealevel;temperature;humidity
21111;BME280;10713;51.912;4.494;2022-07-23T00:00:30;101917.44;;;17.54;100.00
21111;BME280;10713;51.912;4.494;2022-07-23T00:02:56;101913.44;;;17.63;100.00
21111;BME280;10713;51.912;4.494;2022-07-23T00:05:21;101918.13;;;17.58;100.00
21111;BME280;10713;51.912;4.494;2022-07-23T00:07:46;101911.94;;;17.58;100.00
21111;BME280;10713;51.912;4.494;2022-07-23T00:10:12;101915.53;;;17.56;100.00
21111;BME280;10713;51.912;4.494;2022-07-23T00:12:38;101918.63;;;17.49;100.00
21111;BME280;10713;51.912;4.494;2022-07-23T00:15:04;101917.75;;;17.48;100.00
21111;BME280;10713;51.912;4.494;2022-07-23T00:17:30;101901.09;;;17.43;100.00
21111;BME280;10713;51.912;4.494;2022-07-23T00:19:55;101906.59;;;17.40;100.00
21111;BME280;10713;51.912;4.494;2022-07-23T00:22:21;101906.75;;;17.37;100.00
21111;BME280;10713;51.912;4.494;2022-07-23T00:24:46;101903.38;;;17.33;100.00
21111;BME280;10713;51.912;4.494;2022-07-23T00:27:11;101895.63;;;17.29;100.00
21111;BME280;10713;51.912;4.494;2022-07-23T00:29:37;101891.66;;;17.19;100.00
21111;BME280;10713;51.912;4.494;2022-07-23T00:32:02;101886.81;;;17.09;100.00
21111;BME280;10713;51.912;4.494;2022-07-23T00:34:27;101880.66;;;17.07;100.00
21111;BME280;10713;51.912;4.494;2022-07-23T00:36:53;101882.47;;;17.07;100.00
21111;BME280;10713;51.912;4.494;2022-07-23T00:39:19;101884.28;;;17.06;100.00
21111;BME280;10713;51.912;4.494;2022-07-23T00:41:46;101881.47;;;17.09;100.00
21111;BME280;10713;51.912;4.494;2022-07-23T00:44:19;101885.47;;;17.18;100.00
21111;BME280;10713;51.912;4.494;2022-07-23T00:46:56;101878.47;;;17.16;100.00
21111;BME280;10713;51.912;4.494;2022-07-23T00:49:27;101880.50;;;17.10;100.00
21111;BME280;10713;51.912;4.494;2022-07-23T00:51:53;101878.97;;;17.06;100.00
21111;BME280;10713;51.912;4.494;2022-07-23T00:54:19;101876.50;;;17.02;100.00
21111;BME280;10713;51.912;4.494;2022-07-23T00:56:46;101875.00;;;16.96;100.00
21111;BME280;10713;51.912;4.494;2022-07-23T00:59:12;101875.25;;;16.92;100.00
21111;BME280;10713;51.912;4.494;2022-07-23T01:01:38;101878.06;;;16.88;100.00
21111;BME280;10713;51.912;4.494;2022-07-23T01:04:04;101872.75;;;16.88;100.00
21111;BME280;10713;51.912;4.494;2022-07-23T01:06:34;101873.34;;;16.94;100.00
21111;BME280;10713;51.912;4.494;2022-07-23T01:09:00;101869.66;;;16.96;100.00
21111;BME280;10713;51.912;4.494;2022-07-23T01:11:26;101871.47;;;16.96;100.00
21111;BME280;10713;51.912;4.494;2022-07-23T01:13:52;101874.25;;;16.94;100.00
21111;BME280;10713;51.912;4.494;2022-07-23T01:16:19;101879.47;;;16.96;100.00
21111;BME280;10713;51.912;4.494;2022-07-23T01:18:44;101870.13;;;16.87;100.00
21111;BME280;10713;51.912;4.494;2022-07-23T01:21:11;101865.00;;;16.82;100.00
21111;BME280;10713;51.912;4.494;2022-07-23T01:23:38;101867.78;;;16.81;100.00
21111;BME280;10713;51.912;4.494;2022-07-23T01:26:03;101870.34;;;16.82;100.00
21111;BME280;10713;51.912;4.494;2022-07-23T01:28:29;101874.59;;;16.86;100.00
21111;BME280;10713;51.912;4.494;2022-07-23T01:30:54;101878.06;;;16.88;100.00
21111;BME280;10713;51.912;4.494;2022-07-23T01:33:20;101872.00;;;16.85;100.00
21111;BME280;10713;51.912;4.494;2022-07-23T01:35:45;101875.06;;;16.77;100.00
21111;BME280;10713;51.912;4.494;2022-07-23T01:38:10;101874.44;;;16.71;100.00
21111;BME280;10713;51.912;4.494;2022-07-23T01:40:36;101876.34;;;16.69;100.00
21111;BME280;10713;51.912;4.494;2022-07-23T01:43:01;101868.56;;;16.64;100.00
21111;BME280;10713;51.912;4.494;2022-07-23T01:45:26;101876.56;;;16.64;100.00
21111;BME280;10713;51.912;4.494;2022-07-23T01:47:52;101867.16;;;16.57;100.00
21111;BME280;10713;51.912;4.494;2022-07-23T01:50:17;101878.81;;;16.54;100.00
21111;BME280;10713;51.912;4.494;2022-07-23T01:52:43;101880.47;;;16.57;100.00
21111;BME280;10713;51.912;4.494;2022-07-23T01:55:08;101880.22;;;16.61;100.00
21111;BME280;10713;51.912;4.494;2022-07-23T01:57:34;101875.13;;;16.57;100.00
21111;BME280;10713;51.912;4.494;2022-07-23T01:59:59;101878.81;;;16.54;100.00
21111;BME280;10713;51.912;4.494;2022-07-23T02:02:25;101886.72;;;16.56;100.00
21111;BME280;10713;51.912;4.494;2022-07-23T02:04:50;101885.00;;;16.55;100.00
21111;BME280;10713;51.912;4.494;2022-07-23T02:07:16;101886.81;;;16.54;100.00
21111;BME280;10713;51.912;4.494;2022-07-23T02:09:41;101881.69;;;16.50;100.00
21111;BME280;10713;51.912;4.494;2022-07-23T02:12:07;101883.41;;;16.51;100.00
21111;BME280;10713;51.912;4.494;2022-07-23T02:14:32;101881.53;;;16.72;100.00
21111;BME280;10713;51.912;4.494;2022-07-23T02:16:58;101879.56;;;16.75;100.00
21111;BME280;10713;51.912;4.494;2022-07-23T02:19:23;101882.69;;;16.47;100.00
21111;BME280;10713;51.912;4.494;2022-07-23T02:21:48;101884.56;;;16.45;100.00
21111;BME280;10713;51.912;4.494;2022-07-23T02:24:14;101873.03;;;16.44;100.00
21111;BME280;10713;51.912;4.494;2022-07-23T02:26:39;101880.97;;;16.46;100.00
21111;BME280;10713;51.912;4.494;2022-07-23T02:29:05;101877.81;;;16.38;100.00
21111;BME280;10713;51.912;4.494;2022-07-23T02:31:30;101877.94;;;16.35;100.00
21111;BME280;10713;51.912;4.494;2022-07-23T02:33:56;101874.63;;;16.30;100.00
21111;BME280;10713;51.912;4.494;2022-07-23T02:36:21;101874.63;;;16.30;100.00
21111;BME280;10713;51.912;4.494;2022-07-23T02:38:48;101878.38;;;16.26;100.00
21111;BME280;10713;51.912;4.494;2022-07-23T02:41:14;101876.88;;;16.20;100.00
21111;BME280;10713;51.912;4.494;2022-07-23T02:43:39;101876.13;;;16.16;100.00
21111;BME280;10713;51.912;4.494;2022-07-23T02:46:04;101886.72;;;16.18;100.00
21111;BME280;10713;51.912;4.494;2022-07-23T02:48:30;101883.25;;;16.16;100.00
21111;BME280;10713;51.912;4.494;2022-07-23T02:50:56;101886.72;;;16.18;100.00
21111;BME280;10713;51.912;4.494;2022-07-23T02:53:22;101884.13;;;16.16;100.00
21111;BME280;10713;51.912;4.494;2022-07-23T02:55:48;101884.25;;;16.13;100.00
21111;BME280;10713;51.912;4.494;2022-07-23T02:58:13;101885.22;;;16.12;100.00
21111;BME280;10713;51.912;4.494;2022-07-23T03:00:39;101888.69;;;16.14;100.00
21111;BME280;10713;51.912;4.494;2022-07-23T03:03:04;101900.09;;;16.16;100.00
21111;BME280;10713;51.912;4.494;2022-07-23T03:05:30;101891.25;;;16.16;100.00
21111;BME280;10713;51.912;4.494;2022-07-23T03:07:55;101891.34;;;16.14;100.00
21111;BME280;10713;51.912;4.494;2022-07-23T03:10:20;101893.06;;;16.15;100.00
21111;BME280;10713;51.912;4.494;2022-07-23T03:12:46;101890.53;;;16.12;100.00
21111;BME280;10713;51.912;4.494;2022-07-23T03:15:11;101890.59;;;16.11;100.00
21111;BME280;10713;51.912;4.494;2022-07-23T03:17:36;101894.16;;;16.11;100.00
21111;BME280;10713;51.912;4.494;2022-07-23T03:20:02;101895.84;;;16.12;100.00
21111;BME280;10713;51.912;4.494;2022-07-23T03:22:27;101892.38;;;16.10;100.00
21111;BME280;10713;51.912;4.494;2022-07-23T03:24:53;101889.81;;;16.09;100.00
21111;BME280;10713;51.912;4.494;2022-07-23T03:27:19;101889.81;;;16.09;100.00
21111;BME280;10713;51.912;4.494;2022-07-23T03:29:44;101887.28;;;16.06;100.00
21111;BME280;10713;51.912;4.494;2022-07-23T03:32:10;101884.69;;;16.04;100.00
21111;BME280;10713;51.912;4.494;2022-07-23T03:34:35;101894.34;;;16.07;100.00
21111;BME280;10713;51.912;4.494;2022-07-23T03:37:01;101905.84;;;16.07;100.00
21111;BME280;10713;51.912;4.494;2022-07-23T03:39:26;101897.06;;;16.05;100.00
21111;BME280;10713;51.912;4.494;2022-07-23T03:41:51;101899.66;;;16.07;100.00
21111;BME280;10713;51.912;4.494;2022-07-23T03:44:17;101903.41;;;16.03;100.00
21111;BME280;10713;51.912;4.494;2022-07-23T03:46:42;101906.09;;;16.03;100.00
21111;BME280;10713;51.912;4.494;2022-07-23T03:49:07;101904.34;;;16.02;100.00
21111;BME280;10713;51.912;4.494;2022-07-23T03:51:33;101915.69;;;16.05;100.00
21111;BME280;10713;51.912;4.494;2022-07-23T03:53:58;101909.38;;;16.08;100.00
21111;BME280;10713;51.912;4.494;2022-07-23T03:56:24;101914.69;;;16.08;100.00
21111;BME280;10713;51.912;4.494;2022-07-23T03:58:49;101926.03;;;16.13;100.00
21111;BME280;10713;51.912;4.494;2022-07-23T04:01:14;101922.34;;;16.15;100.00
21111;BME280;10713;51.912;4.494;2022-07-23T04:03:40;101904.50;;;16.17;100.00
21111;BME280;10713;51.912;4.494;2022-07-23T04:06:06;101906.03;;;16.23;100.00
21111;BME280;10713;51.912;4.494;2022-07-23T04:08:31;101906.47;;;16.33;100.00
21111;BME280;10713;51.912;4.494;2022-07-23T04:10:57;101911.81;;;16.52;100.00
21111;BME280;10713;51.912;4.494;2022-07-23T04:13:22;101915.91;;;16.78;100.00
21111;BME280;10713;51.912;4.494;2022-07-23T04:15:47;101911.28;;;17.00;100.00
21111;BME280;10713;51.912;4.494;2022-07-23T04:18:13;101902.97;;;17.24;100.00
21111;BME280;10713;51.912;4.494;2022-07-23T04:20:39;101915.63;;;17.38;100.00
21111;BME280;10713;51.912;4.494;2022-07-23T04:23:04;101912.69;;;17.60;100.00
21111;BME280;10713;51.912;4.494;2022-07-23T04:25:29;101905.28;;;17.99;100.00
21111;BME280;10713;51.912;4.494;2022-07-23T04:27:55;101904.31;;;18.34;100.00
21111;BME280;10713;51.912;4.494;2022-07-23T04:30:20;101912.88;;;18.56;100.00
21111;BME280;10713;51.912;4.494;2022-07-23T04:32:46;101904.03;;;18.72;100.00
21111;BME280;10713;51.912;4.494;2022-07-23T04:35:11;101912.22;;;18.84;100.00
21111;BME280;10713;51.912;4.494;2022-07-23T04:37:36;101903.06;;;19.04;100.00
21111;BME280;10713;51.912;4.494;2022-07-23T04:40:02;101905.28;;;19.12;100.00
21111;BME280;10713;51.912;4.494;2022-07-23T04:42:27;101903.97;;;19.19;100.00
21111;BME280;10713;51.912;4.494;2022-07-23T04:44:53;101899.66;;;19.17;100.00
21111;BME280;10713;51.912;4.494;2022-07-23T04:47:18;101904.88;;;19.34;100.00
21111;BME280;10713;51.912;4.494;2022-07-23T04:49:43;101903.00;;;19.66;100.00
21111;BME280;10713;51.912;4.494;2022-07-23T04:52:09;101911.91;;;19.95;100.00
21111;BME280;10713;51.912;4.494;2022-07-23T04:54:34;101904.47;;;20.00;100.00
21111;BME280;10713;51.912;4.494;2022-07-23T04:56:59;101905.41;;;20.14;100.00
21111;BME280;10713;51.912;4.494;2022-07-23T04:59:25;101903.34;;;20.75;100.00
21111;BME280;10713;51.912;4.494;2022-07-23T05:01:50;101905.00;;;21.44;100.00
21111;BME280;10713;51.912;4.494;2022-07-23T05:04:15;101896.75;;;21.98;100.00
21111;BME280;10713;51.912;4.494;2022-07-23T05:06:41;101904.44;;;22.41;100.00
21111;BME280;10713;51.912;4.494;2022-07-23T05:09:06;101899.91;;;22.79;100.00
21111;BME280;10713;51.912;4.494;2022-07-23T05:11:31;101896.47;;;23.25;100.00
21111;BME280;10713;51.912;4.494;2022-07-23T05:13:57;101895.94;;;23.55;100.00
21111;BME280;10713;51.912;4.494;2022-07-23T05:16:22;101888.78;;;23.31;100.00
21111;BME280;10713;51.912;4.494;2022-07-23T05:18:47;101889.25;;;23.25;100.00
21111;BME280;10713;51.912;4.494;2022-07-23T05:21:13;101889.66;;;23.43;100.00
21111;BME280;10713;51.912;4.494;2022-07-23T05:23:38;101877.50;;;23.26;100.00
21111;BME280;10713;51.912;4.494;2022-07-23T05:26:03;101883.03;;;22.40;100.00
21111;BME280;10713;51.912;4.494;2022-07-23T05:28:29;101888.03;;;21.95;100.00
21111;BME280;10713;51.912;4.494;2022-07-23T05:30:54;101892.44;;;21.18;100.00
21111;BME280;10713;51.912;4.494;2022-07-23T05:33:19;101895.78;;;20.67;100.00
21111;BME280;10713;51.912;4.494;2022-07-23T05:35:45;101905.97;;;20.19;100.00
21111;BME280;10713;51.912;4.494;2022-07-23T05:38:10;101897.53;;;19.82;100.00
21111;BME280;10713;51.912;4.494;2022-07-23T05:40:35;101908.16;;;19.69;100.00
21111;BME280;10713;51.912;4.494;2022-07-23T05:43:01;101902.91;;;20.25;100.00
21111;BME280;10713;51.912;4.494;2022-07-23T05:45:26;101907.44;;;21.07;100.00
21111;BME280;10713;51.912;4.494;2022-07-23T05:47:52;101901.34;;;21.96;100.00
21111;BME280;10713;51.912;4.494;2022-07-23T05:50:17;101898.25;;;22.65;100.00
21111;BME280;10713;51.912;4.494;2022-07-23T05:52:43;101897.13;;;23.39;100.00
21111;BME280;10713;51.912;4.494;2022-07-23T05:55:09;101892.38;;;24.01;100.00
21111;BME280;10713;51.912;4.494;2022-07-23T05:57:36;101892.59;;;24.54;100.00
21111;BME280;10713;51.912;4.494;2022-07-23T06:00:04;101889.72;;;24.78;100.00
21111;BME280;10713;51.912;4.494;2022-07-23T06:02:30;101886.94;;;25.01;100.00
21111;BME280;10713;51.912;4.494;2022-07-23T06:04:55;101888.84;;;25.21;100.00
21111;BME280;10713;51.912;4.494;2022-07-23T06:07:20;101887.50;;;25.99;100.00
21111;BME280;10713;51.912;4.494;2022-07-23T06:09:46;101894.94;;;26.47;100.00
21111;BME280;10713;51.912;4.494;2022-07-23T06:12:12;101902.06;;;27.28;100.00
21111;BME280;10713;51.912;4.494;2022-07-23T06:14:37;101892.50;;;28.00;92.29
21111;BME280;10713;51.912;4.494;2022-07-23T06:17:03;101885.88;;;28.12;84.81
21111;BME280;10713;51.912;4.494;2022-07-23T06:19:28;101886.88;;;26.67;85.45
21111;BME280;10713;51.912;4.494;2022-07-23T06:21:53;101889.31;;;25.68;98.86
21111;BME280;10713;51.912;4.494;2022-07-23T06:24:19;101890.84;;;25.08;100.00
21111;BME280;10713;51.912;4.494;2022-07-23T06:26:44;101893.63;;;24.85;100.00
21111;BME280;10713;51.912;4.494;2022-07-23T06:29:09;101889.63;;;24.68;100.00
21111;BME280;10713;51.912;4.494;2022-07-23T06:31:35;101901.28;;;25.75;99.42
21111;BME280;10713;51.912;4.494;2022-07-23T06:34:00;101893.91;;;26.99;89.55
21111;BME280;10713;51.912;4.494;2022-07-23T06:36:26;101901.91;;;27.49;82.28
21111;BME280;10713;51.912;4.494;2022-07-23T06:38:52;101903.50;;;27.22;83.22
21111;BME280;10713;51.912;4.494;2022-07-23T06:41:17;101904.47;;;27.50;77.69
21111;BME280;10713;51.912;4.494;2022-07-23T06:43:42;101904.06;;;28.02;75.44
21111;BME280;10713;51.912;4.494;2022-07-23T06:46:08;101894.97;;;27.93;74.21
21111;BME280;10713;51.912;4.494;2022-07-23T06:48:33;101892.16;;;27.66;67.37
21111;BME280;10713;51.912;4.494;2022-07-23T06:51:01;101885.47;;;26.92;68.36
21111;BME280;10713;51.912;4.494;2022-07-23T06:53:26;101879.56;;;26.48;72.14
21111;BME280;10713;51.912;4.494;2022-07-23T06:55:52;101888.31;;;26.71;71.26
21111;BME280;10713;51.912;4.494;2022-07-23T06:58:17;101890.19;;;26.70;71.21
21111;BME280;10713;51.912;4.494;2022-07-23T07:00:44;101894.31;;;27.62;67.28
21111;BME280;10713;51.912;4.494;2022-07-23T07:03:09;101898.28;;;27.68;66.31
21111;BME280;10713;51.912;4.494;2022-07-23T07:05:35;101894.16;;;27.63;66.06
21111;BME280;10713;51.912;4.494;2022-07-23T07:08:00;101894.19;;;27.54;65.28
21111;BME280;10713;51.912;4.494;2022-07-23T07:10:26;101905.31;;;27.12;66.61
21111;BME280;10713;51.912;4.494;2022-07-23T07:12:51;101906.84;;;26.56;68.36
21111;BME280;10713;51.912;4.494;2022-07-23T07:15:16;101912.34;;;25.42;75.76
21111;BME280;10713;51.912;4.494;2022-07-23T07:17:42;101905.56;;;25.47;77.80
21111;BME280;10713;51.912;4.494;2022-07-23T07:20:08;101899.16;;;25.27;77.09
21111;BME280;10713;51.912;4.494;2022-07-23T07:22:33;101902.38;;;25.10;77.86
21111;BME280;10713;51.912;4.494;2022-07-23T07:24:59;101904.31;;;24.87;81.02
21111;BME280;10713;51.912;4.494;2022-07-23T07:27:24;101897.69;;;25.86;77.03
21111;BME280;10713;51.912;4.494;2022-07-23T07:29:50;101911.25;;;26.67;72.07
21111;BME280;10713;51.912;4.494;2022-07-23T07:32:15;101910.19;;;26.99;71.12
21111;BME280;10713;51.912;4.494;2022-07-23T07:34:40;101913.84;;;27.85;67.17
21111;BME280;10713;51.912;4.494;2022-07-23T07:37:06;101918.81;;;28.82;61.74
21111;BME280;10713;51.912;4.494;2022-07-23T07:39:31;101915.13;;;29.19;58.32
21111;BME280;10713;51.912;4.494;2022-07-23T07:41:56;101924.06;;;29.99;54.63
21111;BME280;10713;51.912;4.494;2022-07-23T07:44:22;101931.53;;;30.66;52.26
21111;BME280;10713;51.912;4.494;2022-07-23T07:46:47;101931.28;;;31.10;50.58
21111;BME280;10713;51.912;4.494;2022-07-23T07:49:13;101925.00;;;31.34;48.93
21111;BME280;10713;51.912;4.494;2022-07-23T07:51:38;101931.31;;;31.26;48.01
21111;BME280;10713;51.912;4.494;2022-07-23T07:54:04;101932.88;;;31.37;46.50
21111;BME280;10713;51.912;4.494;2022-07-23T07:56:29;101923.34;;;32.21;45.63
21111;BME280;10713;51.912;4.494;2022-07-23T07:58:54;101917.13;;;32.98;43.09
21111;BME280;10713;51.912;4.494;2022-07-23T08:01:20;101929.72;;;32.45;42.36
21111;BME280;10713;51.912;4.494;2022-07-23T08:03:46;101923.53;;;32.20;42.50
21111;BME280;10713;51.912;4.494;2022-07-23T08:06:11;101932.34;;;31.58;42.87
21111;BME280;10713;51.912;4.494;2022-07-23T08:08:37;101941.56;;;31.40;43.68
21111;BME280;10713;51.912;4.494;2022-07-23T08:11:02;101935.56;;;31.94;43.12
21111;BME280;10713;51.912;4.494;2022-07-23T08:13:27;101933.88;;;32.72;41.83
21111;BME280;10713;51.912;4.494;2022-07-23T08:15:53;101926.50;;;32.81;41.48
21111;BME280;10713;51.912;4.494;2022-07-23T08:18:19;101934.28;;;32.92;41.04
21111;BME280;10713;51.912;4.494;2022-07-23T08:20:44;101929.53;;;32.86;38.01
21111;BME280;10713;51.912;4.494;2022-07-23T08:23:10;101937.22;;;32.12;39.53
21111;BME280;10713;51.912;4.494;2022-07-23T08:25:38;101943.06;;;31.92;40.50
21111;BME280;10713;51.912;4.494;2022-07-23T08:28:06;101938.06;;;32.12;39.39
21111;BME280;10713;51.912;4.494;2022-07-23T08:30:33;101942.25;;;31.51;39.34
21111;BME280;10713;51.912;4.494;2022-07-23T08:36:03;101934.66;;;30.87;41.37
21111;BME280;10713;51.912;4.494;2022-07-23T08:38:22;101933.22;;;30.67;42.15
21111;BME280;10713;51.912;4.494;2022-07-23T08:40:49;101925.28;;;30.90;41.80
21111;BME280;10713;51.912;4.494;2022-07-23T08:43:20;101927.53;;;29.83;43.30
21111;BME280;10713;51.912;4.494;2022-07-23T08:45:49;101933.56;;;29.69;43.87
21111;BME280;10713;51.912;4.494;2022-07-23T08:50:47;101929.09;;;30.55;43.22
21111;BME280;10713;51.912;4.494;2022-07-23T08:53:14;101935.53;;;31.04;42.83
21111;BME280;10713;51.912;4.494;2022-07-23T08:55:40;101933.25;;;32.22;41.43
21111;BME280;10713;51.912;4.494;2022-07-23T08:58:08;101940.69;;;32.76;39.97
21111;BME280;10713;51.912;4.494;2022-07-23T09:00:33;101931.31;;;33.25;39.50
21111;BME280;10713;51.912;4.494;2022-07-23T09:02:58;101949.94;;;33.29;38.36
21111;BME280;10713;51.912;4.494;2022-07-23T09:05:24;101942.59;;;33.82;37.90
21111;BME280;10713;51.912;4.494;2022-07-23T09:08:20;101939.44;;;34.38;34.56
21111;BME280;10713;51.912;4.494;2022-07-23T09:16:18;101948.63;;;34.16;36.14
21111;BME280;10713;51.912;4.494;2022-07-23T09:18:50;101949.06;;;33.90;36.16
21111;BME280;10713;51.912;4.494;2022-07-23T09:21:18;101947.09;;;34.28;36.38
21111;BME280;10713;51.912;4.494;2022-07-23T09:26:37;101938.56;;;34.52;33.97
21111;BME280;10713;51.912;4.494;2022-07-23T09:29:15;101936.22;;;34.35;34.46
21111;BME280;10713;51.912;4.494;2022-07-23T09:31:43;101938.78;;;34.21;35.10
21111;BME280;10713;51.912;4.494;2022-07-23T09:36:37;101942.72;;;34.34;34.45
21111;BME280;10713;51.912;4.494;2022-07-23T09:39:03;101946.22;;;34.93;34.07
21111;BME280;10713;51.912;4.494;2022-07-23T09:41:38;101938.06;;;35.00;32.09
21111;BME280;10713;51.912;4.494;2022-07-23T09:44:18;101946.16;;;34.87;31.70
21111;BME280;10713;51.912;4.494;2022-07-23T09:46:46;101946.19;;;35.08;33.59
21111;BME280;10713;51.912;4.494;2022-07-23T09:49:14;101938.78;;;35.80;32.88
21111;BME280;10713;51.912;4.494;2022-07-23T09:51:45;101940.22;;;36.45;31.84
21111;BME280;10713;51.912;4.494;2022-07-23T09:54:24;101929.19;;;36.87;29.67
21111;BME280;10713;51.912;4.494;2022-07-23T09:56:51;101935.81;;;37.19;30.97
21111;BME280;10713;51.912;4.494;2022-07-23T09:59:17;101942.38;;;37.38;30.72
21111;BME280;10713;51.912;4.494;2022-07-23T10:01:44;101940.50;;;37.52;29.70
21111;BME280;10713;51.912;4.494;2022-07-23T10:04:13;101937.97;;;37.50;29.41
21111;BME280;10713;51.912;4.494;2022-07-23T10:06:40;101937.97;;;37.50;29.57
21111;BME280;10713;51.912;4.494;2022-07-23T10:09:08;101947.63;;;36.45;30.40
21111;BME280;10713;51.912;4.494;2022-07-23T10:11:35;101944.94;;;36.17;31.12
21111;BME280;10713;51.912;4.494;2022-07-23T10:14:01;101948.66;;;36.02;31.04
21111;BME280;10713;51.912;4.494;2022-07-23T10:16:29;101942.69;;;35.92;31.10
21111;BME280;10713;51.912;4.494;2022-07-23T10:18:54;101953.59;;;35.85;31.13
21111;BME280;10713;51.912;4.494;2022-07-23T10:22:09;101946.97;;;35.73;30.76
21111;BME280;10713;51.912;4.494;2022-07-23T10:27:10;101935.94;;;36.78;30.25
21111;BME280;10713;51.912;4.494;2022-07-23T10:29:42;101937.94;;;37.24;30.14
21111;BME280;10713;51.912;4.494;2022-07-23T10:32:37;101942.19;;;37.53;29.13
21111;BME280;10713;51.912;4.494;2022-07-23T10:37:57;101942.78;;;36.47;30.37
21111;BME280;10713;51.912;4.494;2022-07-23T10:40:25;101932.25;;;36.09;30.26
21111;BME280;10713;51.912;4.494;2022-07-23T10:42:52;101934.63;;;35.62;30.49
21111;BME280;10713;51.912;4.494;2022-07-23T10:45:33;101928.47;;;35.11;30.06
21111;BME280;10713;51.912;4.494;2022-07-23T10:50:39;101928.34;;;34.61;31.39
21111;BME280;10713;51.912;4.494;2022-07-23T10:57:56;101920.69;;;34.57;31.84
21111;BME280;10713;51.912;4.494;2022-07-23T11:00:22;101925.81;;;35.03;31.26
21111;BME280;10713;51.912;4.494;2022-07-23T11:02:51;101922.06;;;35.25;31.08
21111;BME280;10713;51.912;4.494;2022-07-23T11:05:19;101921.38;;;35.66;30.95
21111;BME280;10713;51.912;4.494;2022-07-23T11:18:54;101917.38;;;34.61;30.30
21111;BME280;10713;51.912;4.494;2022-07-23T11:31:58;101916.38;;;33.50;31.18
21111;BME280;10713;51.912;4.494;2022-07-23T11:36:56;101910.91;;;33.12;30.64
21111;BME280;10713;51.912;4.494;2022-07-23T11:39:25;101913.72;;;33.42;32.24
21111;BME280;10713;51.912;4.494;2022-07-23T11:41:51;101909.66;;;33.61;31.20
21111;BME280;10713;51.912;4.494;2022-07-23T11:44:26;101908.81;;;33.37;30.82
21111;BME280;10713;51.912;4.494;2022-07-23T11:46:56;101902.34;;;33.15;31.54
21111;BME280;10713;51.912;4.494;2022-07-23T11:49:23;101903.22;;;32.85;31.38
21111;BME280;10713;51.912;4.494;2022-07-23T11:52:09;101906.19;;;31.88;32.70
21111;BME280;10713;51.912;4.494;2022-07-23T11:54:37;101896.38;;;31.46;33.02
21111;BME280;10713;51.912;4.494;2022-07-23T11:57:11;101898.59;;;31.42;33.19
21111;BME280;10713;51.912;4.494;2022-07-23T11:59:36;101902.84;;;31.20;33.25
21111;BME280;10713;51.912;4.494;2022-07-23T12:02:05;101897.25;;;30.55;33.74
21111;BME280;10713;51.912;4.494;2022-07-23T12:04:38;101901.78;;;30.38;34.04
21111;BME280;10713;51.912;4.494;2022-07-23T12:07:04;101895.56;;;30.54;34.01
21111;BME280;10713;51.912;4.494;2022-07-23T12:09:30;101902.81;;;30.96;33.98
21111;BME280;10713;51.912;4.494;2022-07-23T12:11:59;101900.59;;;31.16;34.11
21111;BME280;10713;51.912;4.494;2022-07-23T12:14:25;101895.66;;;31.28;34.36
21111;BME280;10713;51.912;4.494;2022-07-23T12:17:11;101898.22;;;31.21;35.44
21111;BME280;10713;51.912;4.494;2022-07-23T12:19:37;101899.63;;;31.25;34.76
21111;BME280;10713;51.912;4.494;2022-07-23T12:22:03;101902.50;;;31.15;34.91
21111;BME280;10713;51.912;4.494;2022-07-23T12:24:29;101904.72;;;31.20;35.26
21111;BME280;10713;51.912;4.494;2022-07-23T12:27:08;101891.97;;;31.37;35.40
21111;BME280;10713;51.912;4.494;2022-07-23T12:29:35;101901.69;;;31.39;35.52
21111;BME280;10713;51.912;4.494;2022-07-23T12:32:01;101898.72;;;31.33;35.52
21111;BME280;10713;51.912;4.494;2022-07-23T12:34:26;101904.19;;;30.92;35.74
21111;BME280;10713;51.912;4.494;2022-07-23T12:36:52;101901.94;;;30.87;35.89
21111;BME280;10713;51.912;4.494;2022-07-23T12:39:35;101890.72;;;31.07;36.52
21111;BME280;10713;51.912;4.494;2022-07-23T12:42:01;101895.84;;;31.10;35.85
21111;BME280;10713;51.912;4.494;2022-07-23T12:44:26;101890.31;;;30.69;35.84
21111;BME280;10713;51.912;4.494;2022-07-23T12:46:52;101893.19;;;30.59;36.49
21111;BME280;10713;51.912;4.494;2022-07-23T12:49:27;101893.72;;;30.71;36.35
21111;BME280;10713;51.912;4.494;2022-07-23T12:51:53;101897.47;;;30.78;35.97
21111;BME280;10713;51.912;4.494;2022-07-23T12:54:27;101890.19;;;30.87;36.38
21111;BME280;10713;51.912;4.494;2022-07-23T12:56:53;101890.03;;;31.05;35.66
21111;BME280;10713;51.912;4.494;2022-07-23T12:59:18;101892.78;;;31.21;35.04
21111;BME280;10713;51.912;4.494;2022-07-23T13:01:54;101886.63;;;30.94;35.11
21111;BME280;10713;51.912;4.494;2022-07-23T13:04:21;101887.59;;;30.77;35.84
21111;BME280;10713;51.912;4.494;2022-07-23T13:06:52;101881.47;;;30.75;36.66
21111;BME280;10713;51.912;4.494;2022-07-23T13:09:19;101880.44;;;30.76;36.56
21111;BME280;10713;51.912;4.494;2022-07-23T13:11:46;101887.03;;;30.49;37.04
21111;BME280;10713;51.912;4.494;2022-07-23T13:14:12;101885.47;;;30.46;37.13
21111;BME280;10713;51.912;4.494;2022-07-23T13:16:39;101878.50;;;30.44;37.35
21111;BME280;10713;51.912;4.494;2022-07-23T13:19:05;101871.47;;;30.33;37.79
21111;BME280;10713;51.912;4.494;2022-07-23T13:21:31;101867.41;;;30.37;37.68
21111;BME280;10713;51.912;4.494;2022-07-23T13:23:57;101876.47;;;30.46;37.86
21111;BME280;10713;51.912;4.494;2022-07-23T13:26:23;101868.81;;;30.49;37.90
21111;BME280;10713;51.912;4.494;2022-07-23T13:28:49;101880.88;;;30.47;38.08
21111;BME280;10713;51.912;4.494;2022-07-23T13:31:16;101878.03;;;30.14;38.25
21111;BME280;10713;51.912;4.494;2022-07-23T13:33:42;101882.34;;;29.99;38.61
21111;BME280;10713;51.912;4.494;2022-07-23T13:36:07;101882.88;;;29.94;38.70